createdAt,value
2023-04-16T00:01:03.175Z,605.1
2023-04-16T00:04:20.580Z,603.5
2023-04-16T00:07:37.984Z,602.6
2023-04-16T00:09:46.826Z,606.4
2023-04-16T00:10:55.393Z,603.6
2023-04-16T00:14:12.803Z,603.5
2023-04-16T00:24:05.022Z,604.6
2023-04-16T00:27:22.424Z,603.2
2023-04-16T00:30:39.831Z,606.4
2023-04-16T00:33:57.249Z,605.5
2023-04-16T00:37:14.657Z,604.8
2023-04-16T00:40:32.086Z,604.4
2023-04-16T00:42:40.845Z,602.1
2023-04-16T00:43:49.464Z,604.2
2023-04-16T00:47:06.878Z,602
2023-04-16T00:50:24.281Z,603.6
2023-04-16T00:53:41.693Z,602.6
2023-04-16T00:56:59.095Z,603.2
2023-04-16T01:00:16.523Z,603.2
2023-04-16T01:03:33.944Z,602.8
2023-04-16T01:06:51.328Z,604.2
2023-04-16T01:10:08.737Z,603.1
2023-04-16T01:13:26.162Z,602.9
2023-04-16T01:15:34.811Z,602.5
2023-04-16T01:16:43.553Z,603.1
2023-04-16T01:20:00.949Z,604.4
2023-04-16T01:23:18.370Z,602.7
2023-04-16T01:29:53.183Z,604.2
2023-04-16T01:33:10.588Z,603.4
2023-04-16T01:36:27.997Z,603.1
2023-04-16T01:39:45.400Z,602.8
2023-04-16T01:43:02.819Z,602.7
2023-04-16T01:46:20.230Z,604.1
2023-04-16T01:48:28.826Z,604.1
2023-04-16T01:49:37.621Z,601.9
2023-04-16T01:52:55.034Z,604.2
2023-04-16T01:56:12.449Z,603.1
2023-04-16T02:02:47.268Z,602.6
2023-04-16T02:06:04.684Z,601.4
2023-04-16T02:09:22.078Z,602
2023-04-16T02:12:39.495Z,602.9
2023-04-16T02:15:56.931Z,603.3
2023-04-16T02:19:14.324Z,603.1
2023-04-16T02:21:22.838Z,601.2
2023-04-16T02:22:31.698Z,603.2
2023-04-16T02:25:49.129Z,602.5
2023-04-16T02:29:06.516Z,603.4
2023-04-16T02:32:23.927Z,603.3
2023-04-16T02:35:41.336Z,602
2023-04-16T02:38:58.747Z,602.3
2023-04-16T02:42:16.153Z,601.4
2023-04-16T02:45:33.561Z,602.3
2023-04-16T02:48:50.981Z,599.9
2023-04-16T02:52:08.383Z,599.8
2023-04-16T02:54:16.801Z,602.3
2023-04-16T02:55:25.788Z,604.6
2023-04-16T02:58:43.190Z,601.1
2023-04-16T03:02:00.645Z,602.6
2023-04-16T03:05:18.015Z,600.8
2023-04-16T03:08:35.408Z,601.4
2023-04-16T03:11:52.808Z,601.6
2023-04-16T03:15:10.229Z,602.6
2023-04-16T03:18:27.613Z,600.3
2023-04-16T03:21:45.014Z,601.5
2023-04-16T03:25:02.422Z,602.8
2023-04-16T03:27:10.789Z,603.6
2023-04-16T03:28:19.836Z,600.1
2023-04-16T03:31:37.244Z,602.9
2023-04-16T03:34:54.633Z,601.5
2023-04-16T03:41:29.452Z,602.4
2023-04-16T03:44:46.879Z,599.7
2023-04-16T03:48:04.266Z,601.4
2023-04-16T03:51:21.680Z,602.1
2023-04-16T03:54:39.096Z,599.8
2023-04-16T03:57:56.494Z,601.3
2023-04-16T04:00:04.791Z,601.2
2023-04-16T04:01:13.902Z,601.8
2023-04-16T04:04:31.315Z,600.6
2023-04-16T04:07:48.718Z,600.9
2023-04-16T04:11:06.128Z,601.1
2023-04-16T04:14:23.529Z,601.7
2023-04-16T04:17:40.942Z,598.5
2023-04-16T04:20:58.355Z,602.2
2023-04-16T04:24:15.758Z,602.5
2023-04-16T04:27:33.159Z,601.1
2023-04-16T04:30:50.573Z,602.3
2023-04-16T04:32:58.769Z,600.9
2023-04-16T04:34:07.979Z,602.1
2023-04-16T04:37:25.396Z,601.3
2023-04-16T04:40:42.811Z,601.8
2023-04-16T04:44:00.211Z,602.2
2023-04-16T04:47:17.615Z,600
2023-04-16T04:50:35.040Z,600.5
2023-04-16T04:53:52.450Z,601.2
2023-04-16T04:57:09.850Z,601
2023-04-16T05:00:27.266Z,601.2
2023-04-16T05:03:44.664Z,600.5
2023-04-16T05:07:02.071Z,601
2023-04-16T05:10:19.486Z,600
2023-04-16T05:13:36.886Z,600.9
2023-04-16T05:16:54.387Z,599.9
2023-04-16T05:20:11.700Z,601.2
2023-04-16T05:23:29.109Z,601.4
2023-04-16T05:26:46.529Z,600.5
2023-04-16T05:30:03.920Z,600.6
2023-04-16T05:33:21.330Z,601.3
2023-04-16T05:36:38.751Z,598.8
2023-04-16T05:38:46.689Z,600.8
2023-04-16T05:39:56.154Z,601.1
2023-04-16T05:43:13.569Z,600.8
2023-04-16T05:46:30.965Z,601.1
2023-04-16T05:49:48.383Z,599.2
2023-04-16T05:53:05.807Z,602.1
2023-04-16T05:56:23.211Z,600.1
2023-04-16T05:59:40.620Z,599.7
2023-04-16T06:02:58.040Z,601.6
2023-04-16T06:06:15.510Z,600.7
2023-04-16T06:09:32.869Z,599.3
2023-04-16T06:11:40.711Z,600.4
2023-04-16T06:12:50.283Z,599.4
2023-04-16T06:16:07.703Z,597.8
2023-04-16T06:19:25.133Z,599.7
2023-04-16T06:22:42.521Z,599
2023-04-16T06:25:59.919Z,601.8
2023-04-16T06:29:17.325Z,599.6
2023-04-16T06:32:34.724Z,599.7
2023-04-16T06:35:52.184Z,601.3
2023-04-16T06:39:09.579Z,602.1
2023-04-16T06:42:26.936Z,602.6
2023-04-16T06:44:34.714Z,599.9
2023-04-16T06:45:44.339Z,600.7
2023-04-16T06:49:01.742Z,600.8
2023-04-16T06:52:19.152Z,600.1
2023-04-16T06:55:36.571Z,598.8
2023-04-16T06:58:53.953Z,600.2
2023-04-16T07:05:28.794Z,599.2
2023-04-16T07:08:46.211Z,601.1
2023-04-16T07:12:03.625Z,599.5
2023-04-16T07:15:21.044Z,600.3
2023-04-16T07:17:28.693Z,599.3
2023-04-16T07:18:38.453Z,597.6
2023-04-16T07:21:55.933Z,600.4
2023-04-16T07:25:13.319Z,600.1
2023-04-16T07:31:48.109Z,600.5
2023-04-16T07:35:05.536Z,600.4
2023-04-16T07:38:22.939Z,600.1
2023-04-16T07:41:40.355Z,599.1
2023-04-16T07:44:57.782Z,600.2
2023-04-16T07:48:15.213Z,597.8
2023-04-16T07:50:22.737Z,598.9
2023-04-16T07:51:32.591Z,599.9
2023-04-16T07:54:49.998Z,599.5
2023-04-16T07:58:07.413Z,598.6
2023-04-16T08:01:24.826Z,599.6
2023-04-16T08:04:42.257Z,587.5
2023-04-16T08:07:59.675Z,580.7
2023-04-16T08:11:17.072Z,583.1
2023-04-16T08:14:34.482Z,588.6
2023-04-16T08:17:51.878Z,589.6
2023-04-16T08:21:09.332Z,593.5
2023-04-16T08:23:15.785Z,594.8
2023-04-16T08:24:25.768Z,596.1
2023-04-16T08:26:04.530Z,598.3
2023-04-16T08:27:43.238Z,599.2
2023-04-16T08:29:21.926Z,600.6
2023-04-16T08:31:00.631Z,599.6
2023-04-16T08:32:39.327Z,601.7
2023-04-16T08:34:18.039Z,603.1
2023-04-16T08:35:56.734Z,600.6
2023-04-16T08:37:35.504Z,603.7
2023-04-16T08:39:14.155Z,602.5
2023-04-16T08:42:00.048Z,600.5
2023-04-16T08:43:07.269Z,602.2
2023-04-16T08:44:45.966Z,601
2023-04-16T08:46:24.653Z,598.8
2023-04-16T08:48:03.375Z,601.2
2023-04-16T08:49:42.063Z,599.8
2023-04-16T08:51:20.784Z,598.7
2023-04-16T08:52:59.454Z,599.8
2023-04-16T08:56:16.877Z,599.9
2023-04-16T08:57:55.558Z,599.1
2023-04-16T08:59:02.763Z,600.3
2023-04-16T09:00:09.976Z,598.8
2023-04-16T09:04:17.961Z,600
2023-04-16T09:07:35.412Z,599.7
2023-04-16T09:10:52.764Z,600.4
2023-04-16T09:14:10.184Z,603.5
2023-04-16T09:15:30.786Z,604.6
2023-04-16T09:17:27.555Z,604.7
2023-04-16T09:20:44.972Z,605.4
2023-04-16T09:24:02.406Z,605.6
2023-04-16T09:27:19.781Z,605.6
2023-04-16T09:30:37.164Z,605.7
2023-04-16T09:33:54.555Z,603.7
2023-04-16T09:37:11.957Z,602
2023-04-16T09:40:29.358Z,604.9
2023-04-16T09:43:46.749Z,604.2
2023-04-16T09:47:04.201Z,604.8
2023-04-16T09:48:24.785Z,603.8
2023-04-16T09:50:21.641Z,605.2
2023-04-16T09:53:39.037Z,605.2
2023-04-16T09:56:56.487Z,604.3
2023-04-16T10:00:13.937Z,605.6
2023-04-16T10:03:31.389Z,604.6
2023-04-16T10:06:48.834Z,605.3
2023-04-16T10:10:06.255Z,604.8
2023-04-16T10:19:58.441Z,606.6
2023-04-16T10:21:18.777Z,606.2
2023-04-16T10:23:15.893Z,606.2
2023-04-16T10:29:50.770Z,606.5
2023-04-16T10:33:08.194Z,608.2
2023-04-16T10:39:42.996Z,608.4
2023-04-16T10:43:00.534Z,608.1
2023-04-16T10:49:35.253Z,604.4
2023-04-16T10:52:52.608Z,605.3
2023-04-16T10:54:12.736Z,604.5
2023-04-16T10:56:10.040Z,606.4
2023-04-16T10:59:27.512Z,603.9
2023-04-16T11:02:44.834Z,603.9
2023-04-16T11:06:02.276Z,605.4
2023-04-16T11:09:19.634Z,606.1
2023-04-16T11:12:37.124Z,604.6
2023-04-16T11:19:11.865Z,606.5
2023-04-16T11:22:29.240Z,606
2023-04-16T11:25:46.625Z,606.1
2023-04-16T11:27:06.727Z,606.8
2023-04-16T11:29:04.085Z,605.3
2023-04-16T11:32:21.589Z,607.2
2023-04-16T11:38:07.159Z,603.5
2023-04-16T11:41:24.607Z,606.9
2023-04-16T11:44:42.058Z,606.9
2023-04-16T11:47:59.512Z,605.5
2023-04-16T11:51:16.963Z,604.3
2023-04-16T11:57:51.891Z,604.3
2023-04-16T12:00:00.733Z,606.3
2023-04-16T12:01:09.308Z,608.5
2023-04-16T12:07:44.165Z,604.9
2023-04-16T12:11:01.611Z,606.6
2023-04-16T12:14:19.067Z,605.4
2023-04-16T12:20:04.781Z,606.9
2023-04-16T12:26:39.571Z,608.3
2023-04-16T12:29:57.020Z,607.2
2023-04-16T12:32:54.735Z,608.9
2023-04-16T12:34:02.985Z,610.5
2023-04-16T12:37:20.353Z,609.3
2023-04-16T12:40:37.808Z,609.1
2023-04-16T12:43:55.271Z,609
2023-04-16T12:47:12.724Z,605.6
2023-04-16T12:50:30.105Z,606.2
2023-04-16T12:57:05.043Z,607.9
2023-04-16T13:05:48.771Z,607.8
2023-04-16T13:06:56.965Z,606.3
2023-04-16T13:10:14.425Z,606.7
2023-04-16T13:20:06.918Z,606.7
2023-04-16T13:26:41.603Z,605.5
2023-04-16T13:29:59.083Z,606.8
2023-04-16T13:36:34.129Z,609.3
2023-04-16T13:38:42.763Z,606.1
2023-04-16T13:39:51.506Z,607.1
2023-04-16T13:43:08.926Z,606.6
2023-04-16T13:46:26.370Z,605.4
2023-04-16T13:49:43.773Z,604.9
2023-04-16T13:53:01.208Z,606.3
2023-04-16T13:56:18.592Z,606.4
2023-04-16T13:59:36.052Z,605.4
2023-04-16T14:02:53.505Z,605.8
2023-04-16T14:06:10.985Z,603.1
2023-04-16T14:09:28.428Z,606.5
2023-04-16T14:11:36.738Z,605.7
2023-04-16T14:16:03.280Z,607.3
2023-04-16T14:19:20.688Z,606.6
2023-04-16T14:22:38.158Z,608.4
2023-04-16T14:25:55.549Z,607.4
2023-04-16T14:29:12.927Z,610.2
2023-04-16T14:32:30.385Z,607.4
2023-04-16T14:35:47.833Z,607.1
2023-04-16T14:39:05.278Z,609.8
2023-04-16T14:44:30.732Z,607.1
2023-04-16T14:48:08.437Z,605.7
2023-04-16T14:51:25.850Z,606.3
2023-04-16T14:54:43.292Z,605.9
2023-04-16T14:58:00.744Z,604.9
2023-04-16T15:04:35.698Z,604.3
2023-04-16T15:07:53.053Z,603.9
2023-04-16T15:14:27.965Z,606.5
2023-04-16T15:18:32.928Z,604.4
2023-04-16T15:21:50.327Z,605.1
2023-04-16T15:25:07.747Z,606.4
2023-04-16T15:28:25.243Z,607
2023-04-16T15:34:59.962Z,606.8
2023-04-16T15:38:17.358Z,607.8
2023-04-16T15:41:34.806Z,605.1
2023-04-16T15:44:52.253Z,604.9
2023-04-16T15:48:09.711Z,604.9
2023-04-16T15:50:18.707Z,603.7
2023-04-16T15:51:27.153Z,604.1
2023-04-16T15:54:44.694Z,603.5
2023-04-16T15:58:02.060Z,602.4
2023-04-16T16:01:19.509Z,604.6
2023-04-16T16:04:36.927Z,605.2
2023-04-16T16:07:54.368Z,605.3
2023-04-16T16:11:11.810Z,605.5
2023-04-16T16:14:29.256Z,606.2
2023-04-16T16:17:46.730Z,604.9
2023-04-16T16:21:04.113Z,604.6
2023-04-16T16:23:12.680Z,606.4
2023-04-16T16:24:21.562Z,606.5
2023-04-16T16:27:39.013Z,606.9
2023-04-16T16:30:56.379Z,607.8
2023-04-16T16:34:13.774Z,607
2023-04-16T16:40:48.545Z,608.2
2023-04-16T16:44:05.993Z,608.4
2023-04-16T16:47:23.406Z,607.9
2023-04-16T16:50:40.796Z,607.8
2023-04-16T16:53:58.254Z,605.9
2023-04-16T16:56:06.702Z,605.8
2023-04-16T16:57:15.686Z,606.3
2023-04-16T17:00:33.130Z,606.3
2023-04-16T17:03:50.566Z,607
2023-04-16T17:07:08.024Z,605.7
2023-04-16T17:10:25.485Z,606
2023-04-16T17:13:42.925Z,608.1
2023-04-16T17:17:00.401Z,604.8
2023-04-16T17:20:17.782Z,604.8
2023-04-16T17:23:35.239Z,605.9
2023-04-16T17:26:52.677Z,606.5
2023-04-16T17:29:00.699Z,605.9
2023-04-16T17:30:09.192Z,604.6
2023-04-16T17:31:56.048Z,604.6
2023-04-16T17:33:34.778Z,606.9
2023-04-16T17:35:13.529Z,604.1
2023-04-16T17:36:52.265Z,606.4
2023-04-16T17:38:31.027Z,606
2023-04-16T17:40:09.771Z,604.8
2023-04-16T17:41:48.528Z,605.4
2023-04-16T17:43:27.282Z,605.8
2023-04-16T17:45:06.034Z,603.8
2023-04-16T17:46:44.736Z,605.7
2023-04-16T17:48:23.424Z,603.3
2023-04-16T17:50:02.133Z,601.9
2023-04-16T17:51:40.821Z,603.3
2023-04-16T17:53:19.594Z,605
2023-04-16T17:54:58.368Z,604.1
2023-04-16T17:56:37.095Z,605.4
2023-04-16T17:58:15.849Z,602.3
2023-04-16T17:59:54.606Z,603
2023-04-16T18:01:33.350Z,605.3
2023-04-16T18:02:40.578Z,601.7
2023-04-16T18:03:47.766Z,603.9
2023-04-16T18:05:26.508Z,604.2
2023-04-16T18:07:05.216Z,604.1
2023-04-16T18:08:43.853Z,606.1
2023-04-16T18:12:51.831Z,603.6
2023-04-16T18:16:09.292Z,602.5
2023-04-16T18:19:08.552Z,604.8
2023-04-16T18:20:16.768Z,605
2023-04-16T18:23:34.219Z,605.5
2023-04-16T18:26:51.601Z,604.7
2023-04-16T18:30:09.014Z,606.9
2023-04-16T18:33:26.536Z,605.6
2023-04-16T18:36:43.793Z,607.3
2023-04-16T18:40:01.187Z,607.1
2023-04-16T18:43:18.600Z,606
2023-04-16T18:46:36.021Z,608.5
2023-04-16T18:49:53.391Z,609
2023-04-16T18:52:02.547Z,604.7
2023-04-16T18:53:10.837Z,606.1
2023-04-16T18:56:28.236Z,605.1
2023-04-16T18:59:45.630Z,605.2
2023-04-16T19:03:03.023Z,602.2
2023-04-16T19:06:20.441Z,604
2023-04-16T19:09:37.825Z,604.3
2023-04-16T19:12:55.223Z,603.8
2023-04-16T19:16:12.635Z,603.6
2023-04-16T19:19:30.018Z,602.3
2023-04-16T19:22:47.419Z,603.7
2023-04-16T19:24:56.523Z,603.2
2023-04-16T19:26:04.828Z,603.8
2023-04-16T19:29:22.226Z,604.6
2023-04-16T19:32:39.598Z,604.6
2023-04-16T19:35:57.086Z,605.5
2023-04-16T19:39:14.402Z,605.7
2023-04-16T19:42:31.817Z,603.3
2023-04-16T19:45:49.220Z,602.2
2023-04-16T19:49:06.728Z,605.1
2023-04-16T19:52:23.996Z,601.5
2023-04-16T19:55:41.402Z,604.9
2023-04-16T19:57:50.583Z,601.5
2023-04-16T19:58:58.839Z,603.9
2023-04-16T20:02:16.323Z,602.6
2023-04-16T20:05:33.712Z,604.5
2023-04-16T20:08:51.088Z,604.4
2023-04-16T20:12:08.532Z,602.5
2023-04-16T20:15:25.899Z,602.9
2023-04-16T20:18:43.287Z,606.2
2023-04-16T20:22:00.675Z,605.6
2023-04-16T20:25:18.131Z,604.4
2023-04-16T20:28:35.538Z,605.5
2023-04-16T20:30:44.464Z,606
2023-04-16T20:31:52.927Z,605.6
2023-04-16T20:35:10.323Z,606.7
2023-04-16T20:38:27.747Z,607.9
2023-04-16T20:41:45.146Z,607.9
2023-04-16T20:45:02.602Z,608.6
2023-04-16T20:48:19.941Z,607.5
2023-04-16T20:51:37.334Z,608.3
2023-04-16T20:54:54.744Z,603.9
2023-04-16T20:58:12.188Z,603.8
2023-04-16T21:01:29.764Z,605
2023-04-16T21:03:38.459Z,604.7
2023-04-16T21:04:47.079Z,603.9
2023-04-16T21:08:04.434Z,605.3
2023-04-16T21:11:21.851Z,603.6
2023-04-16T21:14:39.239Z,605.8
2023-04-16T21:17:56.672Z,603.4
2023-04-16T21:21:14.032Z,605.1
2023-04-16T21:24:31.432Z,605.5
2023-04-16T21:27:48.849Z,604.1
2023-04-16T21:31:06.274Z,603.6
2023-04-16T21:34:23.675Z,605.1
2023-04-16T21:36:32.422Z,605.9
2023-04-16T21:37:41.217Z,605.8
2023-04-16T21:40:58.520Z,604.9
2023-04-16T21:44:15.918Z,604.3
2023-04-16T21:47:33.307Z,603.9
2023-04-16T21:50:50.708Z,603.4
2023-04-16T21:54:08.106Z,604.2
2023-04-16T21:57:25.501Z,604.1
2023-04-16T22:04:00.301Z,603
2023-04-16T22:07:17.812Z,602.4
2023-04-16T22:09:26.384Z,603.5
2023-04-16T22:10:35.212Z,603.5
2023-04-16T22:13:52.618Z,604.3
2023-04-16T22:17:09.989Z,602.5
2023-04-16T22:20:27.397Z,602.6
2023-04-16T22:23:44.803Z,608.3
2023-04-16T22:27:02.243Z,605.3
2023-04-16T22:30:19.657Z,605.6
2023-04-16T22:33:37.017Z,605.4
2023-04-16T22:36:54.427Z,607.1
2023-04-16T22:40:11.853Z,607
2023-04-16T22:42:20.407Z,606.5
2023-04-16T22:43:28.322Z,604.6
2023-04-16T22:45:15.172Z,606.2
2023-04-16T22:46:53.847Z,607.2
2023-04-16T22:48:32.545Z,606.1
2023-04-16T22:50:11.247Z,605
2023-04-16T22:51:49.938Z,604.4
2023-04-16T22:53:28.641Z,605.8
2023-04-16T22:55:07.392Z,605.4
2023-04-16T22:56:46.138Z,604.9
2023-04-16T22:58:24.887Z,606.7
2023-04-16T23:00:03.583Z,603.9
2023-04-16T23:01:42.294Z,603.6
2023-04-16T23:03:20.991Z,605.4
2023-04-16T23:04:59.746Z,605.2
2023-04-16T23:06:38.441Z,605.8
2023-04-16T23:08:17.188Z,602.8
2023-04-16T23:09:55.954Z,604.5
2023-04-16T23:11:34.692Z,605.6
2023-04-16T23:13:13.390Z,606.3
2023-04-16T23:14:52.095Z,606
2023-04-16T23:15:59.309Z,603.4
2023-04-16T23:17:06.509Z,603.6
2023-04-16T23:18:45.219Z,604.2
2023-04-16T23:20:23.908Z,603.9
2023-04-16T23:22:02.606Z,602.7
2023-04-16T23:26:10.576Z,605.3
2023-04-16T23:29:28.026Z,604
2023-04-16T23:32:27.292Z,603.7
2023-04-16T23:33:35.517Z,604
2023-04-16T23:36:52.960Z,605
2023-04-16T23:40:10.409Z,604.1
2023-04-16T23:43:27.873Z,603.8
2023-04-16T23:46:45.266Z,602.9
2023-04-16T23:50:02.656Z,605.5
2023-04-16T23:53:20.068Z,604.2
2023-04-16T23:56:37.461Z,602.5
2023-04-16T23:59:54.848Z,604.2
